San Ygnacio, Texas
Current Conditions -  °F | °C
As of 6:40 AM on Thursday 30 Oct 2014 (Local Time) from MMNL Reporting Station
Clear Clear  
Wind Chill: 68°   Ceiling: Unl
Heat Index: 68°   Visibility: 8mi
Dew Point: 63°   Wind: 0mph
Humidity: 83%   Direction: NA
Pressure: 30.05"   Gusts: NA
Location:  27.04°N, 99.44°W
Report Text: MMNL 301140Z 00000KT 8SM SKC 20/17 A3005 RMK SLP202 54000 904
Loading
Personal Weather Stations






























Interactive Weather Map New forecast layout! Learn more

10-Day Weather Forecast

Advertisements
Track Severe Weather on mobile